sensor_id;sensor_type;location;lat;lon;timestamp;temperature;humidity
20081;DHT22;10200;49.232;9.222;2024-03-22T00:01:42;9.50;99.90
20081;DHT22;10200;49.232;9.222;2024-03-22T00:04:07;9.40;99.90
20081;DHT22;10200;49.232;9.222;2024-03-22T00:06:33;9.40;99.90
20081;DHT22;10200;49.232;9.222;2024-03-22T00:08:58;9.40;99.90
20081;DHT22;10200;49.232;9.222;2024-03-22T00:11:24;9.40;99.90
20081;DHT22;10200;49.232;9.222;2024-03-22T00:13:50;9.30;99.90
20081;DHT22;10200;49.232;9.222;2024-03-22T00:16:16;9.30;99.90
20081;DHT22;10200;49.232;9.222;2024-03-22T00:18:42;9.20;99.90
20081;DHT22;10200;49.232;9.222;2024-03-22T00:21:07;9.20;99.90
20081;DHT22;10200;49.232;9.222;2024-03-22T00:23:33;9.20;99.90
20081;DHT22;10200;49.232;9.222;2024-03-22T00:25:59;9.10;99.90
20081;DHT22;10200;49.232;9.222;2024-03-22T00:28:25;9.10;99.90
20081;DHT22;10200;49.232;9.222;2024-03-22T00:30:50;9.10;99.90
20081;DHT22;10200;49.232;9.222;2024-03-22T00:33:16;9.00;99.90
20081;DHT22;10200;49.232;9.222;2024-03-22T00:35:42;8.90;99.90
20081;DHT22;10200;49.232;9.222;2024-03-22T00:38:07;8.90;99.90
20081;DHT22;10200;49.232;9.222;2024-03-22T00:40:33;8.90;99.90
20081;DHT22;10200;49.232;9.222;2024-03-22T00:42:59;8.90;99.90
20081;DHT22;10200;49.232;9.222;2024-03-22T00:45:24;8.80;99.90
20081;DHT22;10200;49.232;9.222;2024-03-22T00:47:50;8.80;99.90
20081;DHT22;10200;49.232;9.222;2024-03-22T00:50:16;8.70;99.90
20081;DHT22;10200;49.232;9.222;2024-03-22T00:52:41;8.70;99.90
20081;DHT22;10200;49.232;9.222;2024-03-22T00:55:07;8.60;99.90
20081;DHT22;10200;49.232;9.222;2024-03-22T00:57:33;8.60;99.90
20081;DHT22;10200;49.232;9.222;2024-03-22T00:59:58;8.60;99.90
20081;DHT22;10200;49.232;9.222;2024-03-22T01:02:24;8.60;99.90
20081;DHT22;10200;49.232;9.222;2024-03-22T01:04:49;8.60;99.90
20081;DHT22;10200;49.232;9.222;2024-03-22T01:07:15;8.60;99.90
20081;DHT22;10200;49.232;9.222;2024-03-22T01:09:41;8.60;99.90
20081;DHT22;10200;49.232;9.222;2024-03-22T01:12:07;8.60;99.90
20081;DHT22;10200;49.232;9.222;2024-03-22T01:14:32;8.50;99.90
20081;DHT22;10200;49.232;9.222;2024-03-22T01:16:58;8.50;99.90
20081;DHT22;10200;49.232;9.222;2024-03-22T01:19:23;8.50;99.90
20081;DHT22;10200;49.232;9.222;2024-03-22T01:21:49;8.50;99.90
20081;DHT22;10200;49.232;9.222;2024-03-22T01:24:15;8.40;99.90
20081;DHT22;10200;49.232;9.222;2024-03-22T01:26:40;8.40;99.90
20081;DHT22;10200;49.232;9.222;2024-03-22T01:29:07;8.40;99.90
20081;DHT22;10200;49.232;9.222;2024-03-22T01:31:32;8.30;99.90
20081;DHT22;10200;49.232;9.222;2024-03-22T01:33:58;8.30;99.90
20081;DHT22;10200;49.232;9.222;2024-03-22T01:36:23;8.30;99.90
20081;DHT22;10200;49.232;9.222;2024-03-22T01:38:49;8.20;99.90
20081;DHT22;10200;49.232;9.222;2024-03-22T01:41:14;8.10;99.90
20081;DHT22;10200;49.232;9.222;2024-03-22T01:43:40;8.10;99.90
20081;DHT22;10200;49.232;9.222;2024-03-22T01:46:07;8.10;99.90
20081;DHT22;10200;49.232;9.222;2024-03-22T01:48:34;8.10;99.90
20081;DHT22;10200;49.232;9.222;2024-03-22T01:51:00;8.10;99.90
20081;DHT22;10200;49.232;9.222;2024-03-22T01:53:26;8.10;99.90
20081;DHT22;10200;49.232;9.222;2024-03-22T01:55:52;8.10;99.90
20081;DHT22;10200;49.232;9.222;2024-03-22T01:58:18;8.10;99.90
20081;DHT22;10200;49.232;9.222;2024-03-22T02:00:44;8.00;99.90
20081;DHT22;10200;49.232;9.222;2024-03-22T02:03:09;8.00;99.90
20081;DHT22;10200;49.232;9.222;2024-03-22T02:05:35;7.90;99.90
20081;DHT22;10200;49.232;9.222;2024-03-22T02:08:00;7.90;99.90
20081;DHT22;10200;49.232;9.222;2024-03-22T02:10:26;7.90;99.90
20081;DHT22;10200;49.232;9.222;2024-03-22T02:12:52;7.80;99.90
20081;DHT22;10200;49.232;9.222;2024-03-22T02:15:17;7.80;99.90
20081;DHT22;10200;49.232;9.222;2024-03-22T02:17:43;7.80;99.90
20081;DHT22;10200;49.232;9.222;2024-03-22T02:20:09;7.80;99.90
20081;DHT22;10200;49.232;9.222;2024-03-22T02:22:35;7.80;99.90
20081;DHT22;10200;49.232;9.222;2024-03-22T02:25:01;7.70;99.90
20081;DHT22;10200;49.232;9.222;2024-03-22T02:27:26;7.70;99.90
20081;DHT22;10200;49.232;9.222;2024-03-22T02:29:53;7.60;99.90
20081;DHT22;10200;49.232;9.222;2024-03-22T02:32:18;7.50;99.90
20081;DHT22;10200;49.232;9.222;2024-03-22T02:34:44;7.50;99.90
20081;DHT22;10200;49.232;9.222;2024-03-22T02:37:09;7.50;99.90
20081;DHT22;10200;49.232;9.222;2024-03-22T02:39:35;7.50;99.90
20081;DHT22;10200;49.232;9.222;2024-03-22T02:42:00;7.50;99.90
20081;DHT22;10200;49.232;9.222;2024-03-22T02:44:26;7.50;99.90
20081;DHT22;10200;49.232;9.222;2024-03-22T02:46:52;7.40;99.90
20081;DHT22;10200;49.232;9.222;2024-03-22T02:49:17;7.40;99.90
20081;DHT22;10200;49.232;9.222;2024-03-22T02:51:43;7.40;99.90
20081;DHT22;10200;49.232;9.222;2024-03-22T02:54:08;7.40;99.90
20081;DHT22;10200;49.232;9.222;2024-03-22T02:56:34;7.40;99.90
20081;DHT22;10200;49.232;9.222;2024-03-22T02:58:59;7.40;99.90
20081;DHT22;10200;49.232;9.222;2024-03-22T03:01:25;7.40;99.90
20081;DHT22;10200;49.232;9.222;2024-03-22T03:03:51;7.40;99.90
20081;DHT22;10200;49.232;9.222;2024-03-22T03:06:16;7.40;99.90
20081;DHT22;10200;49.232;9.222;2024-03-22T03:08:45;7.40;99.90
20081;DHT22;10200;49.232;9.222;2024-03-22T03:11:11;7.40;99.90
20081;DHT22;10200;49.232;9.222;2024-03-22T03:13:36;7.40;99.90
20081;DHT22;10200;49.232;9.222;2024-03-22T03:16:03;7.40;99.90
20081;DHT22;10200;49.232;9.222;2024-03-22T03:18:28;7.30;99.90
20081;DHT22;10200;49.232;9.222;2024-03-22T03:20:54;7.30;99.90
20081;DHT22;10200;49.232;9.222;2024-03-22T03:23:19;7.30;99.90
20081;DHT22;10200;49.232;9.222;2024-03-22T03:25:46;7.30;99.90
20081;DHT22;10200;49.232;9.222;2024-03-22T03:28:11;7.30;99.90
20081;DHT22;10200;49.232;9.222;2024-03-22T03:30:38;7.30;99.90
20081;DHT22;10200;49.232;9.222;2024-03-22T03:33:04;7.20;99.90
20081;DHT22;10200;49.232;9.222;2024-03-22T03:35:30;7.10;99.90
20081;DHT22;10200;49.232;9.222;2024-03-22T03:37:56;7.10;99.90
20081;DHT22;10200;49.232;9.222;2024-03-22T03:40:21;7.10;99.90
20081;DHT22;10200;49.232;9.222;2024-03-22T03:42:52;7.10;99.90
20081;DHT22;10200;49.232;9.222;2024-03-22T03:45:18;7.10;99.90
20081;DHT22;10200;49.232;9.222;2024-03-22T03:47:43;7.10;99.90
20081;DHT22;10200;49.232;9.222;2024-03-22T03:50:09;7.10;99.90
20081;DHT22;10200;49.232;9.222;2024-03-22T03:52:35;7.10;99.90
20081;DHT22;10200;49.232;9.222;2024-03-22T03:55:00;7.10;99.90
20081;DHT22;10200;49.232;9.222;2024-03-22T03:57:26;7.00;99.90
20081;DHT22;10200;49.232;9.222;2024-03-22T03:59:52;7.00;99.90
20081;DHT22;10200;49.232;9.222;2024-03-22T04:02:17;7.10;99.90
20081;DHT22;10200;49.232;9.222;2024-03-22T04:04:43;7.10;99.90
20081;DHT22;10200;49.232;9.222;2024-03-22T04:07:09;7.10;99.90
20081;DHT22;10200;49.232;9.222;2024-03-22T04:09:34;7.00;99.90
20081;DHT22;10200;49.232;9.222;2024-03-22T04:12:00;7.20;99.90
20081;DHT22;10200;49.232;9.222;2024-03-22T04:14:26;7.20;99.90
20081;DHT22;10200;49.232;9.222;2024-03-22T04:16:52;7.30;99.90
20081;DHT22;10200;49.232;9.222;2024-03-22T04:19:20;7.30;99.90
20081;DHT22;10200;49.232;9.222;2024-03-22T04:21:46;7.30;99.90
20081;DHT22;10200;49.232;9.222;2024-03-22T04:24:11;7.30;99.90
20081;DHT22;10200;49.232;9.222;2024-03-22T04:26:37;7.30;99.90
20081;DHT22;10200;49.232;9.222;2024-03-22T04:29:02;7.40;99.90
20081;DHT22;10200;49.232;9.222;2024-03-22T04:31:28;7.40;99.90
20081;DHT22;10200;49.232;9.222;2024-03-22T04:33:53;7.50;99.90
20081;DHT22;10200;49.232;9.222;2024-03-22T04:36:19;7.80;99.90
20081;DHT22;10200;49.232;9.222;2024-03-22T04:38:44;7.50;99.90
20081;DHT22;10200;49.232;9.222;2024-03-22T04:41:10;7.40;99.90
20081;DHT22;10200;49.232;9.222;2024-03-22T04:43:36;7.70;99.90
20081;DHT22;10200;49.232;9.222;2024-03-22T04:46:01;7.70;99.90
20081;DHT22;10200;49.232;9.222;2024-03-22T04:48:27;7.70;99.90
20081;DHT22;10200;49.232;9.222;2024-03-22T04:50:53;7.70;99.90
20081;DHT22;10200;49.232;9.222;2024-03-22T04:53:22;7.70;99.90
20081;DHT22;10200;49.232;9.222;2024-03-22T04:55:48;7.60;99.90
20081;DHT22;10200;49.232;9.222;2024-03-22T04:58:16;7.60;99.90
20081;DHT22;10200;49.232;9.222;2024-03-22T05:00:42;7.60;99.90
20081;DHT22;10200;49.232;9.222;2024-03-22T05:03:08;7.60;99.90
20081;DHT22;10200;49.232;9.222;2024-03-22T05:05:34;7.70;99.90
20081;DHT22;10200;49.232;9.222;2024-03-22T05:08:01;7.50;99.90
20081;DHT22;10200;49.232;9.222;2024-03-22T05:10:27;7.50;99.90
20081;DHT22;10200;49.232;9.222;2024-03-22T05:12:54;7.50;99.90
20081;DHT22;10200;49.232;9.222;2024-03-22T05:15:20;7.50;99.90
20081;DHT22;10200;49.232;9.222;2024-03-22T05:17:45;7.60;99.90
20081;DHT22;10200;49.232;9.222;2024-03-22T05:20:11;7.60;99.90
20081;DHT22;10200;49.232;9.222;2024-03-22T05:22:37;7.20;99.90
20081;DHT22;10200;49.232;9.222;2024-03-22T05:25:03;7.70;99.90
20081;DHT22;10200;49.232;9.222;2024-03-22T05:27:31;7.70;99.90
20081;DHT22;10200;49.232;9.222;2024-03-22T05:29:58;7.70;99.90
20081;DHT22;10200;49.232;9.222;2024-03-22T05:32:24;7.70;99.90
20081;DHT22;10200;49.232;9.222;2024-03-22T05:34:50;7.70;99.90
20081;DHT22;10200;49.232;9.222;2024-03-22T05:37:16;7.70;99.90
20081;DHT22;10200;49.232;9.222;2024-03-22T05:39:42;7.70;99.90
20081;DHT22;10200;49.232;9.222;2024-03-22T05:42:08;7.80;99.90
20081;DHT22;10200;49.232;9.222;2024-03-22T05:44:33;7.80;99.90
20081;DHT22;10200;49.232;9.222;2024-03-22T05:46:59;7.80;99.90
20081;DHT22;10200;49.232;9.222;2024-03-22T05:49:25;7.80;99.90
20081;DHT22;10200;49.232;9.222;2024-03-22T05:51:51;7.80;99.90
20081;DHT22;10200;49.232;9.222;2024-03-22T05:54:16;7.80;99.90
20081;DHT22;10200;49.232;9.222;2024-03-22T05:56:42;7.80;99.90
20081;DHT22;10200;49.232;9.222;2024-03-22T05:59:08;7.80;99.90
20081;DHT22;10200;49.232;9.222;2024-03-22T06:01:36;7.90;99.90
20081;DHT22;10200;49.232;9.222;2024-03-22T06:04:03;7.90;99.90
20081;DHT22;10200;49.232;9.222;2024-03-22T06:06:29;7.90;99.90
20081;DHT22;10200;49.232;9.222;2024-03-22T06:08:54;8.00;99.90
20081;DHT22;10200;49.232;9.222;2024-03-22T06:11:22;8.00;99.90
20081;DHT22;10200;49.232;9.222;2024-03-22T06:13:48;8.00;99.90
20081;DHT22;10200;49.232;9.222;2024-03-22T06:16:13;8.10;99.90
20081;DHT22;10200;49.232;9.222;2024-03-22T06:18:39;8.20;99.90
20081;DHT22;10200;49.232;9.222;2024-03-22T06:21:06;8.20;99.90
20081;DHT22;10200;49.232;9.222;2024-03-22T06:23:32;8.20;99.90
20081;DHT22;10200;49.232;9.222;2024-03-22T06:25:58;8.20;99.90
20081;DHT22;10200;49.232;9.222;2024-03-22T06:28:26;8.30;99.90
20081;DHT22;10200;49.232;9.222;2024-03-22T06:30:52;8.40;99.90
20081;DHT22;10200;49.232;9.222;2024-03-22T06:33:17;8.50;99.90
20081;DHT22;10200;49.232;9.222;2024-03-22T06:35:43;8.50;99.90
20081;DHT22;10200;49.232;9.222;2024-03-22T06:38:09;8.60;99.90
20081;DHT22;10200;49.232;9.222;2024-03-22T06:40:35;8.80;99.90
20081;DHT22;10200;49.232;9.222;2024-03-22T06:43:01;9.00;99.90
20081;DHT22;10200;49.232;9.222;2024-03-22T06:45:26;9.20;99.90
20081;DHT22;10200;49.232;9.222;2024-03-22T06:50:18;10.00;99.90
20081;DHT22;10200;49.232;9.222;2024-03-22T06:52:44;10.40;99.90
20081;DHT22;10200;49.232;9.222;2024-03-22T06:55:10;11.10;99.90
20081;DHT22;10200;49.232;9.222;2024-03-22T06:57:37;11.80;99.90
20081;DHT22;10200;49.232;9.222;2024-03-22T07:00:03;12.70;99.90
20081;DHT22;10200;49.232;9.222;2024-03-22T07:02:29;13.20;99.30
20081;DHT22;10200;49.232;9.222;2024-03-22T07:04:54;13.30;95.50
20081;DHT22;10200;49.232;9.222;2024-03-22T07:07:20;13.80;96.20
20081;DHT22;10200;49.232;9.222;2024-03-22T07:09:45;14.60;94.80
20081;DHT22;10200;49.232;9.222;2024-03-22T07:12:13;15.00;91.10
20081;DHT22;10200;49.232;9.222;2024-03-22T07:14:38;15.20;88.40
20081;DHT22;10200;49.232;9.222;2024-03-22T07:17:04;15.80;81.20
20081;DHT22;10200;49.232;9.222;2024-03-22T07:19:30;16.30;82.80
20081;DHT22;10200;49.232;9.222;2024-03-22T07:21:56;16.90;80.90
20081;DHT22;10200;49.232;9.222;2024-03-22T07:24:24;17.70;76.90
20081;DHT22;10200;49.232;9.222;2024-03-22T07:26:50;18.10;71.70
20081;DHT22;10200;49.232;9.222;2024-03-22T07:29:16;18.60;69.40
20081;DHT22;10200;49.232;9.222;2024-03-22T07:31:41;19.10;67.90
20081;DHT22;10200;49.232;9.222;2024-03-22T07:34:07;19.40;63.40
20081;DHT22;10200;49.232;9.222;2024-03-22T07:36:37;19.70;62.60
20081;DHT22;10200;49.232;9.222;2024-03-22T07:39:03;20.20;62.20
20081;DHT22;10200;49.232;9.222;2024-03-22T07:41:34;20.40;59.00
20081;DHT22;10200;49.232;9.222;2024-03-22T07:44:00;20.50;57.00
20081;DHT22;10200;49.232;9.222;2024-03-22T07:46:26;19.90;57.30
20081;DHT22;10200;49.232;9.222;2024-03-22T07:48:53;19.90;58.40
20081;DHT22;10200;49.232;9.222;2024-03-22T07:51:21;19.90;57.90
20081;DHT22;10200;49.232;9.222;2024-03-22T07:53:47;19.20;57.60
20081;DHT22;10200;49.232;9.222;2024-03-22T07:56:13;18.70;59.10
20081;DHT22;10200;49.232;9.222;2024-03-22T07:58:39;18.20;60.10
20081;DHT22;10200;49.232;9.222;2024-03-22T08:01:05;17.60;61.90
20081;DHT22;10200;49.232;9.222;2024-03-22T08:03:30;17.10;64.20
20081;DHT22;10200;49.232;9.222;2024-03-22T08:05:56;16.70;66.00
20081;DHT22;10200;49.232;9.222;2024-03-22T08:08:22;16.50;67.90
20081;DHT22;10200;49.232;9.222;2024-03-22T08:10:47;16.50;69.00
20081;DHT22;10200;49.232;9.222;2024-03-22T08:13:13;16.50;69.20
20081;DHT22;10200;49.232;9.222;2024-03-22T08:15:39;16.60;70.80
20081;DHT22;10200;49.232;9.222;2024-03-22T08:18:05;16.90;70.70
20081;DHT22;10200;49.232;9.222;2024-03-22T08:20:31;17.40;70.60
20081;DHT22;10200;49.232;9.222;2024-03-22T08:22:59;17.70;68.40
20081;DHT22;10200;49.232;9.222;2024-03-22T08:25:25;17.60;68.30
20081;DHT22;10200;49.232;9.222;2024-03-22T08:27:50;17.80;68.60
20081;DHT22;10200;49.232;9.222;2024-03-22T08:30:19;17.90;68.50
20081;DHT22;10200;49.232;9.222;2024-03-22T08:32:45;18.00;67.40
20081;DHT22;10200;49.232;9.222;2024-03-22T08:35:10;18.00;68.60
20081;DHT22;10200;49.232;9.222;2024-03-22T08:37:36;18.20;68.00
20081;DHT22;10200;49.232;9.222;2024-03-22T08:40:02;18.30;67.70
20081;DHT22;10200;49.232;9.222;2024-03-22T08:42:30;18.30;67.10
20081;DHT22;10200;49.232;9.222;2024-03-22T08:44:55;18.40;67.70
20081;DHT22;10200;49.232;9.222;2024-03-22T08:47:21;18.70;67.10
20081;DHT22;10200;49.232;9.222;2024-03-22T08:49:46;18.70;66.00
20081;DHT22;10200;49.232;9.222;2024-03-22T08:52:12;19.00;66.90
20081;DHT22;10200;49.232;9.222;2024-03-22T08:54:38;19.20;66.30
20081;DHT22;10200;49.232;9.222;2024-03-22T08:57:03;19.40;65.70
20081;DHT22;10200;49.232;9.222;2024-03-22T08:59:29;19.40;63.60
20081;DHT22;10200;49.232;9.222;2024-03-22T09:01:54;19.20;64.20
20081;DHT22;10200;49.232;9.222;2024-03-22T09:04:20;19.00;64.50
20081;DHT22;10200;49.232;9.222;2024-03-22T09:06:46;18.70;64.80
20081;DHT22;10200;49.232;9.222;2024-03-22T09:09:12;18.30;66.00
20081;DHT22;10200;49.232;9.222;2024-03-22T09:11:37;18.10;67.10
20081;DHT22;10200;49.232;9.222;2024-03-22T09:14:03;17.90;68.80
20081;DHT22;10200;49.232;9.222;2024-03-22T09:16:29;17.90;69.30
20081;DHT22;10200;49.232;9.222;2024-03-22T09:18:54;17.80;70.80
20081;DHT22;10200;49.232;9.222;2024-03-22T09:21:20;17.80;71.20
20081;DHT22;10200;49.232;9.222;2024-03-22T09:23:46;17.80;71.10
20081;DHT22;10200;49.232;9.222;2024-03-22T09:26:11;17.70;72.40
20081;DHT22;10200;49.232;9.222;2024-03-22T09:28:37;17.60;72.20
20081;DHT22;10200;49.232;9.222;2024-03-22T09:31:04;17.60;72.50
20081;DHT22;10200;49.232;9.222;2024-03-22T09:33:32;17.80;73.60
20081;DHT22;10200;49.232;9.222;2024-03-22T09:35:57;18.00;73.00
20081;DHT22;10200;49.232;9.222;2024-03-22T09:38:23;18.10;73.00
20081;DHT22;10200;49.232;9.222;2024-03-22T09:40:48;18.20;71.40
20081;DHT22;10200;49.232;9.222;2024-03-22T09:43:20;18.20;71.60
20081;DHT22;10200;49.232;9.222;2024-03-22T09:45:50;18.20;70.60
20081;DHT22;10200;49.232;9.222;2024-03-22T09:48:19;18.20;71.70
20081;DHT22;10200;49.232;9.222;2024-03-22T09:50:46;18.30;71.90
20081;DHT22;10200;49.232;9.222;2024-03-22T09:53:13;18.40;70.90
20081;DHT22;10200;49.232;9.222;2024-03-22T09:55:43;18.50;71.00
20081;DHT22;10200;49.232;9.222;2024-03-22T09:58:10;18.60;70.30
20081;DHT22;10200;49.232;9.222;2024-03-22T10:00:36;18.50;70.90
20081;DHT22;10200;49.232;9.222;2024-03-22T10:03:03;18.30;69.90
20081;DHT22;10200;49.232;9.222;2024-03-22T10:05:30;18.30;70.00
20081;DHT22;10200;49.232;9.222;2024-03-22T10:07:55;18.20;70.00
20081;DHT22;10200;49.232;9.222;2024-03-22T10:10:21;18.10;70.60
20081;DHT22;10200;49.232;9.222;2024-03-22T10:12:48;18.00;70.70
20081;DHT22;10200;49.232;9.222;2024-03-22T10:15:14;17.90;70.90
20081;DHT22;10200;49.232;9.222;2024-03-22T10:17:39;17.80;71.10
20081;DHT22;10200;49.232;9.222;2024-03-22T10:20:06;17.80;71.70
20081;DHT22;10200;49.232;9.222;2024-03-22T10:22:58;17.70;72.00
20081;DHT22;10200;49.232;9.222;2024-03-22T10:25:26;17.70;72.80
20081;DHT22;10200;49.232;9.222;2024-03-22T10:27:54;17.60;73.10
20081;DHT22;10200;49.232;9.222;2024-03-22T10:30:20;17.60;73.20
20081;DHT22;10200;49.232;9.222;2024-03-22T10:32:46;17.60;73.80
20081;DHT22;10200;49.232;9.222;2024-03-22T10:35:14;17.70;74.00
20081;DHT22;10200;49.232;9.222;2024-03-22T10:37:40;17.80;73.70
20081;DHT22;10200;49.232;9.222;2024-03-22T10:40:07;17.80;73.60
20081;DHT22;10200;49.232;9.222;2024-03-22T10:42:34;17.80;73.70
20081;DHT22;10200;49.232;9.222;2024-03-22T10:45:00;17.90;73.90
20081;DHT22;10200;49.232;9.222;2024-03-22T10:47:29;17.90;73.30
20081;DHT22;10200;49.232;9.222;2024-03-22T10:52:51;18.10;74.00
20081;DHT22;10200;49.232;9.222;2024-03-22T10:55:25;18.10;73.50
20081;DHT22;10200;49.232;9.222;2024-03-22T10:57:58;18.10;72.50
20081;DHT22;10200;49.232;9.222;2024-03-22T11:00:31;18.10;73.00
20081;DHT22;10200;49.232;9.222;2024-03-22T11:02:57;18.10;73.50
20081;DHT22;10200;49.232;9.222;2024-03-22T11:05:23;18.20;73.60
20081;DHT22;10200;49.232;9.222;2024-03-22T11:08:09;18.30;73.40
20081;DHT22;10200;49.232;9.222;2024-03-22T11:10:36;18.40;72.70
20081;DHT22;10200;49.232;9.222;2024-03-22T11:13:06;18.40;72.30
20081;DHT22;10200;49.232;9.222;2024-03-22T11:15:33;18.40;72.40
20081;DHT22;10200;49.232;9.222;2024-03-22T11:17:59;18.40;72.30
20081;DHT22;10200;49.232;9.222;2024-03-22T11:20:25;18.40;71.70
20081;DHT22;10200;49.232;9.222;2024-03-22T11:22:51;18.40;70.20
20081;DHT22;10200;49.232;9.222;2024-03-22T11:25:18;18.50;69.90
20081;DHT22;10200;49.232;9.222;2024-03-22T11:27:44;18.60;69.10
20081;DHT22;10200;49.232;9.222;2024-03-22T11:30:10;18.80;69.40
20081;DHT22;10200;49.232;9.222;2024-03-22T11:32:36;18.80;67.80
20081;DHT22;10200;49.232;9.222;2024-03-22T11:35:13;18.90;67.10
20081;DHT22;10200;49.232;9.222;2024-03-22T11:37:39;19.00;67.00
20081;DHT22;10200;49.232;9.222;2024-03-22T11:40:08;19.00;66.20
20081;DHT22;10200;49.232;9.222;2024-03-22T11:42:46;19.00;65.70
20081;DHT22;10200;49.232;9.222;2024-03-22T11:45:15;19.00;65.90
20081;DHT22;10200;49.232;9.222;2024-03-22T11:47:41;19.00;63.80
20081;DHT22;10200;49.232;9.222;2024-03-22T11:50:07;19.00;63.50
20081;DHT22;10200;49.232;9.222;2024-03-22T11:52:35;18.90;62.50
20081;DHT22;10200;49.232;9.222;2024-03-22T11:55:00;18.90;63.60
20081;DHT22;10200;49.232;9.222;2024-03-22T11:57:27;19.00;64.30
20081;DHT22;10200;49.232;9.222;2024-03-22T11:59:59;18.90;64.50
20081;DHT22;10200;49.232;9.222;2024-03-22T12:02:25;18.90;65.90
20081;DHT22;10200;49.232;9.222;2024-03-22T12:04:50;18.90;65.90
20081;DHT22;10200;49.232;9.222;2024-03-22T12:07:17;18.90;66.20
20081;DHT22;10200;49.232;9.222;2024-03-22T12:09:46;18.90;66.40
20081;DHT22;10200;49.232;9.222;2024-03-22T12:12:12;18.90;66.40
20081;DHT22;10200;49.232;9.222;2024-03-22T12:14:39;18.90;66.60
20081;DHT22;10200;49.232;9.222;2024-03-22T12:17:05;18.80;65.20
20081;DHT22;10200;49.232;9.222;2024-03-22T12:19:31;18.70;65.50
20081;DHT22;10200;49.232;9.222;2024-03-22T12:21:57;18.80;64.90
20081;DHT22;10200;49.232;9.222;2024-03-22T12:24:23;18.80;64.30
20081;DHT22;10200;49.232;9.222;2024-03-22T12:26:50;18.90;64.40
20081;DHT22;10200;49.232;9.222;2024-03-22T12:29:16;18.90;63.60
20081;DHT22;10200;49.232;9.222;2024-03-22T12:31:42;18.90;62.70
20081;DHT22;10200;49.232;9.222;2024-03-22T12:34:08;19.00;62.50
20081;DHT22;10200;49.232;9.222;2024-03-22T12:36:34;19.00;61.60
20081;DHT22;10200;49.232;9.222;2024-03-22T12:38:59;19.00;61.00
20081;DHT22;10200;49.232;9.222;2024-03-22T12:41:26;19.00;61.20
20081;DHT22;10200;49.232;9.222;2024-03-22T12:43:52;19.10;60.90
20081;DHT22;10200;49.232;9.222;2024-03-22T12:46:18;19.10;61.20
20081;DHT22;10200;49.232;9.222;2024-03-22T12:48:43;19.10;62.20
20081;DHT22;10200;49.232;9.222;2024-03-22T12:51:09;19.20;62.10
20081;DHT22;10200;49.232;9.222;2024-03-22T12:53:34;19.20;62.30
20081;DHT22;10200;49.232;9.222;2024-03-22T12:56:00;19.20;62.30
20081;DHT22;10200;49.232;9.222;2024-03-22T12:58:26;19.30;61.40
20081;DHT22;10200;49.232;9.222;2024-03-22T13:00:51;19.20;61.40
20081;DHT22;10200;49.232;9.222;2024-03-22T13:03:17;19.10;61.20
20081;DHT22;10200;49.232;9.222;2024-03-22T13:05:43;19.10;61.40
20081;DHT22;10200;49.232;9.222;2024-03-22T13:08:08;19.10;61.80
20081;DHT22;10200;49.232;9.222;2024-03-22T13:10:34;19.20;62.20
20081;DHT22;10200;49.232;9.222;2024-03-22T13:12:59;19.10;62.20
20081;DHT22;10200;49.232;9.222;2024-03-22T13:15:25;19.20;62.40
20081;DHT22;10200;49.232;9.222;2024-03-22T13:17:51;19.10;63.30
20081;DHT22;10200;49.232;9.222;2024-03-22T13:20:18;19.20;64.20
20081;DHT22;10200;49.232;9.222;2024-03-22T13:22:44;19.20;62.80
20081;DHT22;10200;49.232;9.222;2024-03-22T13:25:10;19.20;61.40
20081;DHT22;10200;49.232;9.222;2024-03-22T13:27:37;19.10;60.70
20081;DHT22;10200;49.232;9.222;2024-03-22T13:30:05;19.20;60.30
20081;DHT22;10200;49.232;9.222;2024-03-22T13:32:38;19.00;60.00
20081;DHT22;10200;49.232;9.222;2024-03-22T13:35:04;19.00;59.90
20081;DHT22;10200;49.232;9.222;2024-03-22T13:37:31;19.00;59.90
20081;DHT22;10200;49.232;9.222;2024-03-22T13:39:57;19.00;60.30
20081;DHT22;10200;49.232;9.222;2024-03-22T13:42:23;18.90;60.90
20081;DHT22;10200;49.232;9.222;2024-03-22T13:44:49;19.00;60.80
20081;DHT22;10200;49.232;9.222;2024-03-22T13:47:14;19.00;61.90
20081;DHT22;10200;49.232;9.222;2024-03-22T13:49:40;18.90;61.30
20081;DHT22;10200;49.232;9.222;2024-03-22T13:52:07;18.90;61.60
20081;DHT22;10200;49.232;9.222;2024-03-22T13:54:33;18.90;60.60
20081;DHT22;10200;49.232;9.222;2024-03-22T13:56:58;18.90;61.00
20081;DHT22;10200;49.232;9.222;2024-03-22T13:59:26;18.80;60.10
20081;DHT22;10200;49.232;9.222;2024-03-22T14:01:51;18.70;59.80
20081;DHT22;10200;49.232;9.222;2024-03-22T14:04:18;18.80;60.90
20081;DHT22;10200;49.232;9.222;2024-03-22T14:06:45;18.80;60.60
20081;DHT22;10200;49.232;9.222;2024-03-22T14:09:12;18.80;60.40
20081;DHT22;10200;49.232;9.222;2024-03-22T14:11:39;18.80;60.10
20081;DHT22;10200;49.232;9.222;2024-03-22T14:14:05;18.80;60.10
20081;DHT22;10200;49.232;9.222;2024-03-22T14:16:30;18.90;60.40
20081;DHT22;10200;49.232;9.222;2024-03-22T14:18:56;18.90;61.20
20081;DHT22;10200;49.232;9.222;2024-03-22T14:21:22;18.90;60.50
20081;DHT22;10200;49.232;9.222;2024-03-22T14:23:48;18.80;60.00
20081;DHT22;10200;49.232;9.222;2024-03-22T14:26:16;18.80;60.80
20081;DHT22;10200;49.232;9.222;2024-03-22T14:28:41;18.80;60.40
20081;DHT22;10200;49.232;9.222;2024-03-22T14:31:10;18.70;60.30
20081;DHT22;10200;49.232;9.222;2024-03-22T14:33:37;18.70;61.20
20081;DHT22;10200;49.232;9.222;2024-03-22T14:36:03;18.70;61.20
20081;DHT22;10200;49.232;9.222;2024-03-22T14:38:29;18.70;61.60
20081;DHT22;10200;49.232;9.222;2024-03-22T14:40:55;18.60;61.90
20081;DHT22;10200;49.232;9.222;2024-03-22T14:43:26;18.60;61.90
20081;DHT22;10200;49.232;9.222;2024-03-22T14:45:52;18.60;62.20
20081;DHT22;10200;49.232;9.222;2024-03-22T14:48:19;18.50;61.50
20081;DHT22;10200;49.232;9.222;2024-03-22T14:50:46;18.40;62.30
20081;DHT22;10200;49.232;9.222;2024-03-22T14:53:11;18.40;62.50
20081;DHT22;10200;49.232;9.222;2024-03-22T14:55:37;18.30;62.80
20081;DHT22;10200;49.232;9.222;2024-03-22T14:58:04;18.30;63.60
20081;DHT22;10200;49.232;9.222;2024-03-22T15:00:29;18.30;63.90
20081;DHT22;10200;49.232;9.222;2024-03-22T15:02:55;18.20;64.60
20081;DHT22;10200;49.232;9.222;2024-03-22T15:05:20;18.20;65.20
20081;DHT22;10200;49.232;9.222;2024-03-22T15:07:46;18.20;65.00
20081;DHT22;10200;49.232;9.222;2024-03-22T15:10:12;18.20;65.50
20081;DHT22;10200;49.232;9.222;2024-03-22T15:12:37;18.10;65.30
20081;DHT22;10200;49.232;9.222;2024-03-22T15:15:04;18.20;65.20
20081;DHT22;10200;49.232;9.222;2024-03-22T15:17:30;18.20;66.00
20081;DHT22;10200;49.232;9.222;2024-03-22T15:19:56;18.10;65.40
20081;DHT22;10200;49.232;9.222;2024-03-22T15:22:21;18.10;66.00
20081;DHT22;10200;49.232;9.222;2024-03-22T15:24:48;18.10;65.40
20081;DHT22;10200;49.232;9.222;2024-03-22T15:27:14;18.10;65.40
20081;DHT22;10200;49.232;9.222;2024-03-22T15:29:40;18.10;65.30
20081;DHT22;10200;49.232;9.222;2024-03-22T15:32:06;18.00;65.20
20081;DHT22;10200;49.232;9.222;2024-03-22T15:34:32;18.00;65.30
20081;DHT22;10200;49.232;9.222;2024-03-22T15:36:58;18.00;64.80